ADDS TAF Board (Experimental) INFO

IDs: Format: Expanded Condensed

Updated at: 1213 UTC 22 Sep 2014

KMEM - Memphis Intl, TN, US

Issued at 1120 UTC 22 Sep 2014
Time1154Z22/13Z22/14Z22/15Z22/16Z22/17Z22/18Z22/19Z22/20Z22/21Z22/22Z22/23Z23/00Z23/01Z
TypeOBSPRVLPRVLPRVLPRVLPRVLPRVLPRVLPRVLPRVLPRVLPRVLPRVLPRVL
VIS10>6>6>6>6>6>6>6>6>6>6>6>6>6
CIG----------------------------
CoverCLRSKCSKCSKCSKCSKCSKCSKCSKCSKCSKCSKCSKCSKC
FltCat--VFRVFRVFRVFRVFRVFRVFRVFRVFRVFRVFRVFRVFR
WX----------------------------
WDir2040303030303030303030305050
WSpd761111111111111111111144
WGst----------------------------
R09/27
XWnd751010101010101010101033
HWnd24555555555533
R18/36
XWnd34666666666633
HWnd-7-5-9-9-9-9-9-9-9-9-9-9-3-3
Raw TAF
KMEM 221120Z 2212/2312 04006KT P6SM SKC
  FM221400 03011KT P6SM SKC
  FM230000 05004KT P6SM SKC


Raw METAR
KMEM 221154Z 02007KT 10SM CLR 16/11 A3019 RMK AO2 SLP218 T01610106 10211 20161 53021 $

TAF Board Legend

Hazard VFR MVFR IFR LIFR
Visibility (sm) >5 3≤X≤5 1≤X<3 <1
Ceiling (100 ft) >30 10≤X≤30 5≤X<10 <5
Wind Speed (kt) <10 10≤X<20 20≤X<30 ≥30
Wind Gust (kt) <15 15≤X<25 25≤X<35 ≥35
Weather No Wx Reported VCTS,-TS,-FZRA TS,FZRA +TS,+FZRA


Page loaded:  12:13 UTC  |   05:13 AM Pacific  |   06:13 AM Mountain  |   07:13 AM Central  |   08:13 AM Eastern

 

ADVISORIES

FORECASTS

FORECASTS

OBSERVATIONS

USER TOOLS

ABOUT US